Time;durP1;ratioP1;P1;durP2;ratioP2;P2;SDS_P1;SDS_P2;PMS_P1;PMS_P2;Temp;Humidity;BMP_temperature;BMP_pressure;BME280_temperature;BME280_humidity;BME280_pressure;Samples;Min_cycle;Max_cycle;Signal;HPM_P1;HPM_P2
2022/12/07 00:01:36;;;;;;;12.25;10.95;;;8.20;99.90;;;;;;5032782;28;20776;-78
2022/12/07 00:04:06;;;;;;;14.43;12.75;;;8.10;99.90;;;;;;5018374;28;20405;-77
2022/12/07 00:06:40;;;;;;;16.20;14.05;;;8.20;99.90;;;;;;5033298;28;20181;-77
2022/12/07 00:09:09;;;;;;;15.50;13.38;;;8.10;99.90;;;;;;5033654;28;20204;-79
2022/12/07 00:11:35;;;;;;;14.95;12.30;;;8.10;99.90;;;;;;5032713;28;20173;-78
2022/12/07 00:14:04;;;;;;;16.20;12.00;;;8.10;99.90;;;;;;5033700;28;20571;-78
2022/12/07 00:16:31;;;;;;;13.35;12.00;;;8.20;99.90;;;;;;5036643;28;20201;-77
2022/12/07 00:18:58;;;;;;;13.27;11.90;;;8.10;99.90;;;;;;5037766;28;20209;-77
2022/12/07 00:21:26;;;;;;;16.02;13.18;;;8.20;99.90;;;;;;5036533;28;20384;-77
2022/12/07 00:23:53;;;;;;;14.10;12.70;;;8.20;99.90;;;;;;5022634;28;20249;-77
2022/12/07 00:26:39;;;;;;;13.63;12.02;;;8.10;99.90;;;;;;5037911;28;20181;-78
2022/12/07 00:29:20;;;;;;;13.90;11.85;;;8.20;99.90;;;;;;5037391;28;20196;-79
2022/12/07 00:31:45;;;;;;;15.45;12.65;;;8.10;99.90;;;;;;5034153;28;20252;-77
2022/12/07 00:34:18;;;;;;;14.30;12.73;;;8.10;99.90;;;;;;5036687;28;20661;-77
2022/12/07 00:36:44;;;;;;;15.93;13.75;;;8.10;99.90;;;;;;5033637;28;20572;-78
2022/12/07 00:39:09;;;;;;;12.73;11.43;;;8.10;99.90;;;;;;5037552;28;20205;-78
2022/12/07 00:41:35;;;;;;;12.80;11.00;;;8.00;99.90;;;;;;5037642;28;20246;-78
2022/12/07 00:44:01;;;;;;;16.00;11.67;;;8.00;99.90;;;;;;5040492;28;20233;-77
2022/12/07 00:46:27;;;;;;;16.63;13.07;;;8.10;99.90;;;;;;5038914;28;20580;-77
2022/12/07 00:48:53;;;;;;;14.73;12.40;;;8.10;99.90;;;;;;5037051;28;20244;-77
2022/12/07 00:51:21;;;;;;;15.45;13.70;;;8.10;99.90;;;;;;5040213;28;20173;-77
2022/12/07 00:53:47;;;;;;;15.10;13.50;;;8.10;99.90;;;;;;5039099;28;20220;-77
2022/12/07 00:56:15;;;;;;;14.75;12.43;;;8.10;99.90;;;;;;5022314;28;20221;-78
2022/12/07 00:58:41;;;;;;;14.95;12.05;;;8.10;99.90;;;;;;5040330;28;20239;-78
2022/12/07 01:01:09;;;;;;;13.43;11.60;;;8.20;99.90;;;;;;5039291;28;20180;-78
2022/12/07 01:03:35;;;;;;;15.18;13.15;;;8.20;99.90;;;;;;5040088;28;20968;-78
2022/12/07 01:06:01;;;;;;;13.55;12.15;;;8.20;99.90;;;;;;5036229;28;20174;-78
2022/12/07 01:08:28;;;;;;;15.65;14.13;;;8.30;99.90;;;;;;5033339;28;20197;-77
2022/12/07 01:11:05;;;;;;;13.25;11.82;;;8.30;99.90;;;;;;5034725;28;20166;-77
2022/12/07 01:13:32;;;;;;;15.77;13.02;;;8.30;99.90;;;;;;5032244;28;20165;-77
2022/12/07 01:16:00;;;;;;;13.10;11.77;;;8.30;99.90;;;;;;5055532;22;20652;-82
2022/12/07 01:18:27;;;;;;;13.00;11.68;;;8.30;99.90;;;;;;5023163;28;20276;-82
2022/12/07 01:21:05;;;;;;;13.25;11.80;;;8.30;99.90;;;;;;5049218;28;20196;-82
2022/12/07 01:23:32;;;;;;;14.05;10.68;;;8.40;99.90;;;;;;5031895;28;20176;-82
2022/12/07 01:26:00;;;;;;;14.85;13.25;;;8.40;99.90;;;;;;5031537;28;20278;-81
2022/12/07 01:28:26;;;;;;;18.88;13.40;;;8.40;99.90;;;;;;5037695;28;20176;-81
2022/12/07 01:31:00;;;;;;;16.27;14.15;;;8.40;99.90;;;;;;5032798;28;20540;-81
2022/12/07 01:33:28;;;;;;;14.68;12.80;;;8.40;99.90;;;;;;5049317;28;20227;-81
2022/12/07 01:35:54;;;;;;;15.32;13.73;;;8.40;99.90;;;;;;5033686;28;20189;-81
2022/12/07 01:38:20;;;;;;;18.27;13.40;;;8.40;99.90;;;;;;5054844;28;20189;-80
2022/12/07 01:40:54;;;;;;;16.00;13.80;;;8.40;99.90;;;;;;5053004;28;20276;-81
2022/12/07 01:43:20;;;;;;;14.18;12.68;;;8.40;99.90;;;;;;5049877;28;20234;-81
2022/12/07 01:45:46;;;;;;;15.05;13.43;;;8.40;99.90;;;;;;5049652;28;20195;-82
2022/12/07 01:48:16;;;;;;;15.63;14.03;;;8.40;99.90;;;;;;5049945;28;20180;-82
2022/12/07 01:50:44;;;;;;;15.65;12.43;;;8.40;99.90;;;;;;5049097;28;20188;-82
2022/12/07 01:53:11;;;;;;;15.75;12.10;;;8.40;99.90;;;;;;5032055;28;20176;-81
2022/12/07 01:55:41;;;;;;;15.65;14.07;;;8.40;99.90;;;;;;5049083;28;20189;-82
2022/12/07 01:58:07;;;;;;;17.35;13.82;;;8.40;99.90;;;;;;5049791;28;20197;-82
2022/12/07 02:00:33;;;;;;;13.02;11.63;;;8.30;99.90;;;;;;5036907;28;20183;-81
2022/12/07 02:03:17;;;;;;;18.10;13.90;;;8.30;99.90;;;;;;5025149;28;20293;-81
2022/12/07 02:05:45;;;;;;;13.95;12.25;;;8.30;99.90;;;;;;5033641;28;20193;-81
2022/12/07 02:08:12;;;;;;;19.35;14.75;;;8.30;99.90;;;;;;5043047;28;20200;-82
2022/12/07 02:10:38;;;;;;;14.27;12.77;;;8.30;99.90;;;;;;5010902;28;20638;-81
2022/12/07 02:13:06;;;;;;;15.07;13.57;;;8.30;99.90;;;;;;5028608;28;20216;-82
2022/12/07 02:16:19;;;;;;;14.13;12.65;;;8.20;99.90;;;;;;5028999;28;20198;-82
2022/12/07 02:19:13;;;;;;;13.98;11.70;;;8.20;99.90;;;;;;4967924;28;20580;-81
2022/12/07 02:21:52;;;;;;;13.80;12.07;;;8.20;99.90;;;;;;5010709;28;20176;-81
2022/12/07 02:24:48;;;;;;;14.90;13.40;;;8.10;99.90;;;;;;5010974;28;20806;-81
2022/12/07 02:27:35;;;;;;;15.30;13.05;;;8.10;99.90;;;;;;5011421;28;20192;-81
2022/12/07 02:30:13;;;;;;;15.05;12.45;;;8.10;99.90;;;;;;4995416;28;20272;-81
2022/12/07 02:32:56;;;;;;;17.52;12.52;;;8.10;99.90;;;;;;5010834;28;20169;-81
2022/12/07 02:35:31;;;;;;;13.25;11.88;;;8.00;99.90;;;;;;5011287;28;20197;-80
2022/12/07 02:38:15;;;;;;;13.85;12.07;;;8.10;99.90;;;;;;5010923;28;20197;-80
2022/12/07 02:40:52;;;;;;;13.57;12.13;;;8.10;99.90;;;;;;5028588;28;20166;-80
2022/12/07 02:43:33;;;;;;;15.00;11.98;;;8.10;99.90;;;;;;5015933;28;20173;-80
2022/12/07 02:46:04;;;;;;;14.15;12.60;;;8.10;99.90;;;;;;5014902;28;20193;-80
2022/12/07 02:48:33;;;;;;;19.92;14.32;;;8.10;99.90;;;;;;5032624;28;20165;-80
2022/12/07 02:50:58;;;;;;;15.20;13.30;;;8.10;99.90;;;;;;5014101;28;20174;-81
2022/12/07 02:53:37;;;;;;;14.50;13.10;;;8.00;99.90;;;;;;5032043;28;20724;-80
2022/12/07 02:56:25;;;;;;;15.50;13.05;;;8.00;99.90;;;;;;5032171;28;20686;-80
2022/12/07 02:59:18;;;;;;;14.43;12.90;;;8.00;99.90;;;;;;5014522;28;20972;-80
2022/12/07 03:02:11;;;;;;;14.50;12.65;;;8.00;99.90;;;;;;5031679;28;20646;-80
2022/12/07 03:04:55;;;;;;;11.68;10.55;;;8.00;99.90;;;;;;5014573;28;20315;-81
2022/12/07 03:07:50;;;;;;;14.93;13.38;;;8.00;99.90;;;;;;5032065;28;20327;-81
2022/12/07 03:10:38;;;;;;;13.40;12.00;;;8.00;99.90;;;;;;4997632;28;20695;-80
2022/12/07 03:13:19;;;;;;;16.33;14.45;;;8.00;99.90;;;;;;5031991;28;20168;-81
2022/12/07 03:16:02;;;;;;;18.55;13.80;;;8.00;99.90;;;;;;5032548;28;20197;-80
2022/12/07 03:18:34;;;;;;;16.00;14.10;;;8.00;99.90;;;;;;5033527;28;20736;-81
2022/12/07 03:21:04;;;;;;;16.05;14.02;;;8.00;99.90;;;;;;5039125;28;20166;-80
2022/12/07 03:23:34;;;;;;;18.65;15.77;;;8.00;99.90;;;;;;5033377;28;20490;-80
2022/12/07 03:26:02;;;;;;;16.50;14.80;;;8.00;99.90;;;;;;5015193;28;20185;-81
2022/12/07 03:28:33;;;;;;;17.23;14.57;;;8.00;99.90;;;;;;5015617;28;20185;-80
2022/12/07 03:31:18;;;;;;;17.02;15.32;;;8.00;99.90;;;;;;5033680;28;20273;-81
2022/12/07 03:33:57;;;;;;;16.55;14.77;;;8.00;99.90;;;;;;4998185;28;20280;-81
2022/12/07 03:36:36;;;;;;;17.67;14.93;;;8.00;99.90;;;;;;5013989;28;20197;-81
2022/12/07 03:39:23;;;;;;;16.60;14.80;;;8.00;99.90;;;;;;5033113;28;20258;-81
2022/12/07 03:41:49;;;;;;;16.63;14.15;;;8.10;99.90;;;;;;5014240;28;20165;-81
2022/12/07 03:44:16;;;;;;;15.95;14.23;;;8.00;99.90;;;;;;4998512;28;20660;-82
2022/12/07 03:47:15;;;;;;;17.92;15.73;;;8.00;99.90;;;;;;5031989;28;20185;-82
2022/12/07 03:49:53;;;;;;;16.92;15.18;;;8.00;99.90;;;;;;5013931;28;20228;-82
2022/12/07 03:52:32;;;;;;;17.27;15.55;;;8.10;99.90;;;;;;5030577;28;20170;-82
2022/12/07 03:55:18;;;;;;;17.60;15.55;;;8.10;99.90;;;;;;5013710;28;20209;-83
2022/12/07 03:57:46;;;;;;;17.55;14.65;;;8.10;99.90;;;;;;5034194;28;20229;-82
2022/12/07 04:00:13;;;;;;;18.42;15.75;;;8.10;99.90;;;;;;5014094;28;20169;-82
2022/12/07 04:02:39;;;;;;;17.88;15.07;;;8.10;99.90;;;;;;4997135;28;20269;-83
2022/12/07 04:05:06;;;;;;;16.88;13.90;;;8.10;99.90;;;;;;5030647;28;20514;-82
2022/12/07 04:07:31;;;;;;;15.10;13.50;;;8.10;99.90;;;;;;5013381;28;20166;-82
2022/12/07 04:09:57;;;;;;;15.90;14.27;;;8.10;99.90;;;;;;5030919;28;20263;-81
2022/12/07 04:12:23;;;;;;;17.17;13.60;;;8.10;99.90;;;;;;5012790;28;20182;-81
2022/12/07 04:14:49;;;;;;;21.03;15.20;;;8.10;99.90;;;;;;5030836;28;20539;-81
2022/12/07 04:17:15;;;;;;;16.27;14.55;;;8.10;99.90;;;;;;5013088;28;20624;-81
2022/12/07 04:19:40;;;;;;;18.73;15.33;;;8.10;99.90;;;;;;5012910;28;20209;-81
2022/12/07 04:22:07;;;;;;;15.17;13.67;;;8.20;99.90;;;;;;5030403;28;20162;-83
2022/12/07 04:24:33;;;;;;;17.83;15.38;;;8.20;99.90;;;;;;5012990;28;20212;-82
2022/12/07 04:26:58;;;;;;;18.40;16.05;;;8.20;99.90;;;;;;5012921;28;20264;-82
2022/12/07 04:29:25;;;;;;;17.33;15.33;;;8.20;99.90;;;;;;4996746;28;20221;-81
2022/12/07 04:31:51;;;;;;;17.25;15.45;;;8.20;99.90;;;;;;5029906;28;20192;-81
2022/12/07 04:34:18;;;;;;;17.73;14.37;;;8.20;99.90;;;;;;5014401;28;20182;-82
2022/12/07 04:36:45;;;;;;;17.83;14.68;;;8.20;99.90;;;;;;5015218;28;20597;-81
2022/12/07 04:39:20;;;;;;;20.98;15.68;;;8.20;99.90;;;;;;5012842;28;20216;-83
2022/12/07 04:41:46;;;;;;;16.52;14.02;;;8.20;99.90;;;;;;5029527;28;20161;-82
2022/12/07 04:44:14;;;;;;;15.00;13.50;;;8.20;99.90;;;;;;5036391;28;20181;-81
2022/12/07 04:46:41;;;;;;;15.00;13.25;;;8.10;99.90;;;;;;5012417;28;20195;-82
2022/12/07 04:49:06;;;;;;;17.83;15.27;;;8.10;99.90;;;;;;5012622;28;20166;-82
2022/12/07 04:51:32;;;;;;;20.00;15.67;;;8.10;99.90;;;;;;5011637;28;20177;-82
2022/12/07 04:53:58;;;;;;;16.47;14.77;;;8.10;99.90;;;;;;5033156;28;20176;-82
2022/12/07 04:56:24;;;;;;;16.90;14.65;;;8.10;99.90;;;;;;5029967;28;20700;-82
2022/12/07 04:58:52;;;;;;;17.03;14.83;;;8.10;99.90;;;;;;5030019;28;20198;-82
2022/12/07 05:01:18;;;;;;;15.38;13.75;;;8.00;99.90;;;;;;5011560;28;20915;-83
2022/12/07 05:03:44;;;;;;;15.88;13.93;;;8.10;99.90;;;;;;5029795;28;20724;-82
2022/12/07 05:06:11;;;;;;;17.03;15.23;;;8.10;99.90;;;;;;5029529;28;20229;-82
2022/12/07 05:08:37;;;;;;;16.20;14.60;;;8.10;99.90;;;;;;5029519;28;20568;-82
2022/12/07 05:11:04;;;;;;;18.13;14.52;;;8.10;99.90;;;;;;5029462;28;20170;-81
2022/12/07 05:13:31;;;;;;;18.40;14.65;;;8.00;99.90;;;;;;5014763;28;20162;-82
2022/12/07 05:15:58;;;;;;;13.55;12.05;;;8.00;99.90;;;;;;5029694;28;20241;-81
2022/12/07 05:18:24;;;;;;;16.75;14.40;;;8.00;99.90;;;;;;5029113;28;20201;-82
2022/12/07 05:20:50;;;;;;;17.58;14.77;;;8.00;99.90;;;;;;5029295;28;20181;-82
2022/12/07 05:23:17;;;;;;;15.45;13.85;;;8.00;99.90;;;;;;5042254;28;20162;-81
2022/12/07 05:25:43;;;;;;;18.90;14.80;;;8.00;99.90;;;;;;5023558;28;20704;-82
2022/12/07 05:28:09;;;;;;;17.30;15.10;;;8.00;99.90;;;;;;5047439;28;20165;-82
2022/12/07 05:30:35;;;;;;;18.33;15.40;;;8.00;99.90;;;;;;5031843;28;20588;-82
2022/12/07 05:33:02;;;;;;;17.08;15.07;;;8.00;99.90;;;;;;5019517;28;20572;-82
2022/12/07 05:35:29;;;;;;;19.00;15.35;;;8.10;99.90;;;;;;5034537;28;20189;-83
2022/12/07 05:37:56;;;;;;;15.25;13.65;;;8.10;99.90;;;;;;5016482;28;20223;-82
2022/12/07 05:40:22;;;;;;;15.52;13.90;;;8.00;99.90;;;;;;5030447;28;20169;-82
2022/12/07 05:42:48;;;;;;;17.60;14.10;;;8.10;99.90;;;;;;5031161;28;20161;-82
2022/12/07 05:45:14;;;;;;;15.27;13.23;;;8.00;99.90;;;;;;5031017;28;20158;-82
2022/12/07 05:47:39;;;;;;;15.13;13.63;;;8.00;99.90;;;;;;5012166;28;20195;-81
2022/12/07 05:50:06;;;;;;;16.13;13.17;;;8.00;99.90;;;;;;4998376;28;20173;-82
2022/12/07 05:52:32;;;;;;;17.35;14.52;;;8.00;99.90;;;;;;5011929;28;20268;-83
2022/12/07 05:54:58;;;;;;;16.07;14.03;;;8.00;99.90;;;;;;5030364;28;20200;-83
2022/12/07 05:57:24;;;;;;;17.83;14.67;;;8.00;99.90;;;;;;5033940;28;20703;-82
2022/12/07 05:59:49;;;;;;;21.17;15.83;;;7.90;99.90;;;;;;5029498;28;20201;-82
2022/12/07 06:02:16;;;;;;;16.83;13.30;;;7.90;99.90;;;;;;4994806;28;20540;-82
2022/12/07 06:04:44;;;;;;;14.70;13.15;;;7.90;99.90;;;;;;4995346;28;20399;-82
2022/12/07 06:07:12;;;;;;;16.58;13.88;;;7.80;99.90;;;;;;5029387;28;20198;-82
2022/12/07 06:09:37;;;;;;;16.33;14.52;;;7.70;99.90;;;;;;5011846;28;20219;-82
2022/12/07 06:14:49;;;;;;;16.83;13.52;;;7.60;99.90;;;;;;5023507;28;20213;-82
2022/12/07 06:17:15;;;;;;;15.50;13.10;;;7.60;99.90;;;;;;4982974;28;20799;-79
2022/12/07 06:19:41;;;;;;;15.32;13.65;;;7.50;99.90;;;;;;5015786;28;20181;-81
2022/12/07 06:22:08;;;;;;;18.30;14.63;;;7.50;99.90;;;;;;5012515;28;20689;-81
2022/12/07 06:24:35;;;;;;;17.88;13.85;;;7.40;99.90;;;;;;5031799;28;20663;-81
2022/12/07 06:27:01;;;;;;;17.45;14.35;;;7.40;99.90;;;;;;5033397;28;20189;-81
2022/12/07 06:29:27;;;;;;;16.48;14.82;;;7.30;99.90;;;;;;5015377;28;20591;-81
2022/12/07 06:31:53;;;;;;;19.23;14.10;;;7.30;99.90;;;;;;4997839;28;20178;-81
2022/12/07 06:34:22;;;;;;;19.70;16.13;;;7.20;99.90;;;;;;5029932;28;20236;-80
2022/12/07 06:36:53;;;;;;;15.85;14.32;;;7.20;99.90;;;;;;5002427;28;20241;-80
2022/12/07 06:39:23;;;;;;;17.50;15.65;;;7.20;99.90;;;;;;4997722;28;20256;-80
2022/12/07 06:41:49;;;;;;;21.77;15.30;;;7.20;99.90;;;;;;4995054;28;20269;-80
2022/12/07 06:44:15;;;;;;;17.98;16.08;;;7.20;99.90;;;;;;5013025;28;20178;-80
2022/12/07 06:46:40;;;;;;;23.10;16.50;;;7.20;99.90;;;;;;4997893;28;20236;-81
2022/12/07 06:49:06;;;;;;;18.40;16.37;;;7.20;99.90;;;;;;5015657;28;20536;-79
2022/12/07 06:51:36;;;;;;;17.02;15.20;;;7.20;99.90;;;;;;4978070;28;20611;-81
2022/12/07 06:54:03;;;;;;;17.02;15.23;;;7.20;99.90;;;;;;4995055;28;20205;-80
2022/12/07 06:56:29;;;;;;;19.67;15.85;;;7.30;99.90;;;;;;4995560;28;20617;-81
2022/12/07 06:58:55;;;;;;;21.58;15.82;;;7.30;99.90;;;;;;4978391;28;20230;-81
2022/12/07 07:01:21;;;;;;;18.10;15.57;;;7.30;99.90;;;;;;4978434;28;20541;-80
2022/12/07 07:03:47;;;;;;;17.87;15.40;;;7.30;99.90;;;;;;4994906;28;20166;-81
2022/12/07 07:06:13;;;;;;;16.97;14.17;;;7.30;99.90;;;;;;4978884;28;20256;-79
2022/12/07 07:08:40;;;;;;;19.20;15.82;;;7.30;99.90;;;;;;4982610;28;20638;-82
2022/12/07 07:11:06;;;;;;;18.63;15.70;;;7.30;99.90;;;;;;5012708;28;20166;-81
2022/12/07 07:13:33;;;;;;;18.15;16.17;;;7.30;99.90;;;;;;5025229;28;20656;-82
2022/12/07 07:15:58;;;;;;;16.20;14.52;;;7.30;99.90;;;;;;5053841;23;20213;-77
2022/12/07 07:18:25;;;;;;;17.63;15.73;;;7.30;99.90;;;;;;5027874;28;20185;-77
2022/12/07 07:20:51;;;;;;;17.05;15.25;;;7.40;99.90;;;;;;5050013;28;20180;-79
2022/12/07 07:23:17;;;;;;;21.10;15.80;;;7.30;99.90;;;;;;5033499;28;20201;-77
2022/12/07 07:25:44;;;;;;;18.95;16.10;;;7.40;99.90;;;;;;5050164;28;20187;-78
2022/12/07 07:28:10;;;;;;;17.80;15.82;;;7.40;99.90;;;;;;5051493;28;20165;-78
2022/12/07 07:30:36;;;;;;;16.47;14.40;;;7.40;99.90;;;;;;5049164;28;20702;-78
2022/12/07 07:33:03;;;;;;;19.20;15.13;;;7.40;99.90;;;;;;5050145;28;20652;-78
2022/12/07 07:35:30;;;;;;;17.65;15.25;;;7.40;99.90;;;;;;5050266;28;21258;-79
2022/12/07 07:37:56;;;;;;;18.23;15.88;;;7.40;99.90;;;;;;5051511;28;20175;-78
2022/12/07 07:40:23;;;;;;;20.15;17.30;;;7.40;99.90;;;;;;5049450;28;20209;-78
2022/12/07 07:42:53;;;;;;;17.48;14.07;;;7.40;99.90;;;;;;5049585;28;20261;-78
2022/12/07 07:45:21;;;;;;;18.48;15.25;;;7.40;99.90;;;;;;5050828;28;20247;-79
2022/12/07 07:47:47;;;;;;;17.45;14.88;;;7.40;99.90;;;;;;5052112;28;20234;-79
2022/12/07 07:50:13;;;;;;;19.33;16.20;;;7.40;99.90;;;;;;5051627;28;20286;-79
2022/12/07 07:52:39;;;;;;;17.67;15.70;;;7.40;99.90;;;;;;5056439;28;20161;-79
2022/12/07 07:55:09;;;;;;;20.25;15.57;;;7.50;99.90;;;;;;5051583;28;20617;-77
2022/12/07 07:57:37;;;;;;;20.98;16.13;;;7.50;99.90;;;;;;5049278;28;20227;-77
2022/12/07 08:00:04;;;;;;;20.55;16.08;;;7.50;99.90;;;;;;5049801;28;20224;-77
2022/12/07 08:02:38;;;;;;;17.77;15.63;;;7.60;99.90;;;;;;5050123;28;20171;-77
2022/12/07 08:05:04;;;;;;;18.63;16.60;;;7.70;99.90;;;;;;5049970;28;20200;-77
2022/12/07 08:07:30;;;;;;;19.35;15.40;;;7.70;99.90;;;;;;5049584;28;20193;-77
2022/12/07 08:09:57;;;;;;;16.23;14.57;;;7.70;99.90;;;;;;5049669;28;20641;-77
2022/12/07 08:12:22;;;;;;;17.40;15.63;;;7.80;99.90;;;;;;5048053;28;20173;-77
2022/12/07 08:14:48;;;;;;;16.23;14.57;;;7.80;99.90;;;;;;5050949;28;20200;-77
2022/12/07 08:21:21;;;;;;;16.00;14.40;;;7.80;99.90;;;;;;5049737;28;20281;-77
2022/12/07 08:23:46;;;;;;;15.07;12.80;;;7.80;99.90;;;;;;5050588;28;20165;-77
2022/12/07 08:26:15;;;;;;;15.30;13.87;;;7.90;99.90;;;;;;5049157;28;20207;-77
2022/12/07 08:28:41;;;;;;;16.00;14.30;;;7.80;99.90;;;;;;5054738;28;20164;-77
2022/12/07 08:31:11;;;;;;;15.48;13.45;;;7.80;99.90;;;;;;5050286;28;20196;-77
2022/12/07 08:33:37;;;;;;;18.70;15.10;;;7.90;99.90;;;;;;5049192;28;20176;-77
2022/12/07 08:36:08;;;;;;;17.15;13.27;;;7.90;99.90;;;;;;5050220;28;20195;-77
2022/12/07 08:38:39;;;;;;;19.75;14.15;;;8.00;99.90;;;;;;5050229;28;20196;-77
2022/12/07 08:41:05;;;;;;;19.40;13.63;;;8.10;99.90;;;;;;5050509;28;20648;-77
2022/12/07 08:43:31;;;;;;;15.05;13.40;;;8.10;99.90;;;;;;5049948;28;20180;-77
2022/12/07 08:46:09;;;;;;;16.13;12.98;;;8.20;99.90;;;;;;5051229;28;20189;-77
2022/12/07 08:48:38;;;;;;;15.15;13.43;;;8.20;99.90;;;;;;5051731;28;20171;-77
2022/12/07 08:51:03;;;;;;;13.30;11.93;;;8.30;99.90;;;;;;5050458;28;20246;-78
2022/12/07 08:53:29;;;;;;;14.60;11.90;;;8.30;99.90;;;;;;5050332;28;20653;-77
2022/12/07 08:55:57;;;;;;;16.57;12.50;;;8.40;99.90;;;;;;5051572;28;20697;-77
2022/12/07 08:58:23;;;;;;;14.15;12.80;;;8.50;99.90;;;;;;5050968;28;20626;-78
2022/12/07 09:00:48;;;;;;;14.88;11.55;;;8.50;99.90;;;;;;5051582;28;20200;-77
2022/12/07 09:03:14;;;;;;;13.07;11.60;;;8.60;99.90;;;;;;5051568;28;20574;-78
2022/12/07 09:05:40;;;;;;;14.57;11.93;;;8.60;99.90;;;;;;5055389;28;20248;-77
2022/12/07 09:08:07;;;;;;;13.93;12.03;;;8.70;99.90;;;;;;5053370;28;20165;-79
2022/12/07 09:10:32;;;;;;;13.68;11.90;;;8.80;99.90;;;;;;5050050;28;20185;-77
2022/12/07 09:13:01;;;;;;;11.83;10.63;;;8.80;99.90;;;;;;5032312;28;20175;-80
2022/12/07 09:15:31;;;;;;;10.30;8.48;;;8.90;99.90;;;;;;5057749;28;20169;-80
2022/12/07 09:17:57;;;;;;;13.05;10.75;;;8.90;99.90;;;;;;5054594;28;20353;-77
2022/12/07 09:20:22;;;;;;;15.10;11.32;;;8.90;99.90;;;;;;5052014;28;20830;-80
2022/12/07 09:22:48;;;;;;;12.03;9.90;;;8.90;99.90;;;;;;5053340;28;20169;-80
2022/12/07 09:25:14;;;;;;;10.90;9.77;;;8.90;99.90;;;;;;5051071;28;20531;-78
2022/12/07 09:27:41;;;;;;;14.40;11.37;;;8.90;99.90;;;;;;5051587;28;20193;-80
2022/12/07 09:30:07;;;;;;;12.43;10.77;;;9.00;99.90;;;;;;5053659;28;20575;-80
2022/12/07 09:32:33;;;;;;;14.85;10.75;;;9.00;99.90;;;;;;5055670;28;20173;-79
2022/12/07 09:34:59;;;;;;;11.50;10.30;;;9.10;99.90;;;;;;5053094;28;20173;-79
2022/12/07 09:37:24;;;;;;;12.50;9.40;;;9.00;99.90;;;;;;5050807;28;20184;-78
2022/12/07 09:39:50;;;;;;;11.80;10.43;;;9.00;99.90;;;;;;5051388;28;20201;-79
2022/12/07 09:42:39;;;;;;;12.23;10.70;;;9.00;99.90;;;;;;5063014;28;20199;-78
2022/12/07 09:45:11;;;;;;;12.50;10.95;;;9.00;99.90;;;;;;5061639;28;21174;-78
2022/12/07 09:47:37;;;;;;;14.77;10.80;;;9.10;99.90;;;;;;5039556;28;20204;-78
2022/12/07 09:50:11;;;;;;;9.00;8.10;;;9.10;99.90;;;;;;5059478;28;20177;-78
2022/12/07 09:52:37;;;;;;;12.15;9.57;;;9.10;99.90;;;;;;5060169;28;20656;-78
2022/12/07 09:55:03;;;;;;;11.23;8.83;;;9.10;99.90;;;;;;5069075;28;20169;-77
2022/12/07 09:57:34;;;;;;;22.63;10.82;;;9.20;99.90;;;;;;5068736;28;20211;-78
2022/12/07 10:00:03;;;;;;;9.77;8.73;;;9.20;99.90;;;;;;5064072;28;20260;-77
2022/12/07 10:02:38;;;;;;;10.95;8.40;;;9.30;99.90;;;;;;5053100;28;20176;-77
2022/12/07 10:05:06;;;;;;;11.55;9.13;;;9.30;99.90;;;;;;5055409;28;20173;-77
2022/12/07 10:07:32;;;;;;;9.25;7.25;;;9.50;99.90;;;;;;5054111;28;20778;-77
2022/12/07 10:09:58;;;;;;;10.83;8.10;;;9.60;99.90;;;;;;5054076;28;20161;-78
2022/12/07 10:12:24;;;;;;;8.07;7.28;;;9.60;99.90;;;;;;5052057;28;20532;-77
2022/12/07 10:15:02;;;;;;;11.10;8.10;;;9.60;99.90;;;;;;5050644;28;20172;-78
2022/12/07 10:17:41;;;;;;;10.65;8.13;;;9.60;99.90;;;;;;5033656;28;20200;-77
2022/12/07 10:20:16;;;;;;;10.93;7.70;;;9.70;99.90;;;;;;5033607;28;20197;-77
2022/12/07 10:23:13;;;;;;;8.88;7.15;;;9.70;99.90;;;;;;5034736;28;20169;-78
2022/12/07 10:25:40;;;;;;;9.75;8.15;;;9.70;99.90;;;;;;5031864;28;20189;-77
2022/12/07 10:28:17;;;;;;;15.18;10.18;;;9.70;99.90;;;;;;5032542;28;20197;-77
2022/12/07 10:31:14;;;;;;;14.07;9.70;;;9.60;99.90;;;;;;5033023;28;20181;-78
2022/12/07 10:33:52;;;;;;;12.10;8.50;;;9.60;99.90;;;;;;5031493;28;20260;-77
2022/12/07 10:36:34;;;;;;;16.15;9.32;;;9.60;99.90;;;;;;5031357;28;20239;-77
2022/12/07 10:39:20;;;;;;;17.38;9.25;;;9.70;99.90;;;;;;5030692;28;20209;-77
2022/12/07 10:42:15;;;;;;;10.82;8.25;;;9.70;99.90;;;;;;5038352;28;20165;-79
2022/12/07 10:44:42;;;;;;;13.02;9.80;;;9.70;99.90;;;;;;5034730;28;20213;-78
2022/12/07 10:47:18;;;;;;;8.15;7.22;;;9.80;99.90;;;;;;5040084;28;20268;-79
2022/12/07 10:50:17;;;;;;;12.52;8.68;;;9.90;99.90;;;;;;5034141;28;20177;-79
2022/12/07 10:53:01;;;;;;;11.68;9.48;;;9.90;99.90;;;;;;5033037;28;20272;-79
2022/12/07 10:55:46;;;;;;;11.00;8.10;;;10.00;99.90;;;;;;5032289;28;20640;-78
2022/12/07 10:58:43;;;;;;;9.77;8.02;;;10.00;99.90;;;;;;5036395;28;20889;-78
2022/12/07 11:01:30;;;;;;;10.30;7.07;;;10.10;99.90;;;;;;5030188;28;20174;-79
2022/12/07 11:04:14;;;;;;;12.23;7.93;;;10.20;99.90;;;;;;5030815;28;20643;-79
2022/12/07 11:06:54;;;;;;;11.77;8.45;;;10.10;99.90;;;;;;5014083;28;20207;-79
2022/12/07 11:09:39;;;;;;;11.85;8.80;;;10.10;99.90;;;;;;5013858;28;20173;-79
2022/12/07 11:12:17;;;;;;;11.77;7.90;;;10.10;99.90;;;;;;5030760;28;20181;-79
2022/12/07 11:15:01;;;;;;;13.65;8.23;;;10.10;99.90;;;;;;5032208;28;20540;-79
2022/12/07 11:17:55;;;;;;;15.63;10.05;;;10.10;99.90;;;;;;5031013;28;20221;-79
2022/12/07 11:20:27;;;;;;;14.27;9.95;;;10.10;99.90;;;;;;5031894;28;20282;-79
2022/12/07 11:23:03;;;;;;;15.18;10.52;;;10.20;99.90;;;;;;5030469;28;20238;-79
2022/12/07 11:25:50;;;;;;;13.40;9.77;;;10.20;99.90;;;;;;5032166;28;20166;-79
2022/12/07 11:28:27;;;;;;;11.52;8.88;;;10.20;99.90;;;;;;5031622;28;20200;-79
2022/12/07 11:31:21;;;;;;;13.25;9.18;;;10.30;99.90;;;;;;5033047;28;20185;-79
2022/12/07 11:33:58;;;;;;;11.05;8.02;;;10.40;99.90;;;;;;5030698;28;20182;-79
2022/12/07 11:36:41;;;;;;;13.50;8.88;;;10.40;99.90;;;;;;5032912;28;20268;-79
2022/12/07 11:39:25;;;;;;;10.85;7.90;;;10.40;99.90;;;;;;5031660;28;20200;-78
2022/12/07 11:42:03;;;;;;;10.40;7.35;;;10.50;99.90;;;;;;5031437;28;20166;-78
2022/12/07 11:45:00;;;;;;;9.88;6.50;;;10.40;99.90;;;;;;5031619;28;20268;-78
2022/12/07 11:47:38;;;;;;;8.45;6.40;;;10.40;99.90;;;;;;5029511;28;20181;-79
2022/12/07 11:50:29;;;;;;;11.93;7.53;;;10.40;99.90;;;;;;5031482;28;20176;-78
2022/12/07 11:53:02;;;;;;;10.30;7.03;;;10.30;99.90;;;;;;5031042;28;20177;-78
2022/12/07 11:55:54;;;;;;;14.23;10.57;;;10.30;99.90;;;;;;5013635;28;20181;-78
2022/12/07 11:58:36;;;;;;;13.85;11.02;;;10.20;99.90;;;;;;5030603;28;20251;-78
2022/12/07 12:01:16;;;;;;;13.82;10.18;;;10.20;99.90;;;;;;5030803;28;20161;-78
2022/12/07 12:04:05;;;;;;;19.30;14.07;;;10.10;99.90;;;;;;5031028;28;20215;-78
2022/12/07 12:06:31;;;;;;;16.38;12.00;;;10.00;99.90;;;;;;4999709;28;20194;-78
2022/12/07 12:09:16;;;;;;;15.70;10.77;;;9.90;99.90;;;;;;5030410;28;20174;-78
2022/12/07 12:12:13;;;;;;;17.52;11.05;;;9.80;99.90;;;;;;5029433;28;20581;-78
2022/12/07 12:15:03;;;;;;;15.75;9.90;;;9.80;99.90;;;;;;5033723;28;20264;-78
2022/12/07 12:17:35;;;;;;;16.23;12.32;;;9.70;99.90;;;;;;5029860;28;20262;-78
2022/12/07 12:20:31;;;;;;;18.25;12.82;;;9.70;99.90;;;;;;5029275;28;20262;-78
2022/12/07 12:23:16;;;;;;;16.42;11.55;;;9.60;99.90;;;;;;5030306;28;20173;-78
2022/12/07 12:25:46;;;;;;;17.85;12.50;;;9.60;99.90;;;;;;5030233;28;20216;-78
2022/12/07 12:28:52;;;;;;;15.05;10.70;;;9.50;99.90;;;;;;5030244;28;20201;-78
2022/12/07 12:31:21;;;;;;;17.52;11.57;;;9.40;99.90;;;;;;5029830;28;20166;-78
2022/12/07 12:33:55;;;;;;;15.05;11.10;;;9.30;99.90;;;;;;5030411;28;20193;-78
2022/12/07 12:36:34;;;;;;;14.20;9.38;;;9.30;99.90;;;;;;5030458;28;20273;-78
2022/12/07 12:39:14;;;;;;;18.92;11.98;;;9.30;99.90;;;;;;5029831;28;20193;-78
2022/12/07 12:42:05;;;;;;;14.13;10.90;;;9.30;99.90;;;;;;5030063;28;20193;-77
2022/12/07 12:44:33;;;;;;;16.02;11.20;;;9.30;99.90;;;;;;5029763;28;20170;-77
2022/12/07 12:47:22;;;;;;;14.85;10.80;;;9.40;99.90;;;;;;5030369;28;20841;-77
2022/12/07 12:50:19;;;;;;;11.68;8.07;;;9.40;99.90;;;;;;5033742;28;20178;-77
2022/12/07 12:53:25;;;;;;;11.35;8.45;;;9.40;99.90;;;;;;5012581;28;20183;-78
2022/12/07 12:56:09;;;;;;;11.93;8.75;;;9.50;99.90;;;;;;4996006;28;20650;-78
2022/12/07 12:58:37;;;;;;;14.70;9.75;;;9.50;99.90;;;;;;5028422;28;20900;-78
2022/12/07 13:01:35;;;;;;;12.80;9.88;;;9.60;99.90;;;;;;5029575;28;20177;-78
2022/12/07 13:04:02;;;;;;;13.43;10.18;;;9.60;99.90;;;;;;5024495;28;20221;-78
2022/12/07 13:06:28;;;;;;;19.10;12.52;;;9.70;99.90;;;;;;5028486;28;20188;-78
2022/12/07 13:08:58;;;;;;;16.70;11.93;;;9.70;99.90;;;;;;5028467;28;20177;-78
2022/12/07 13:11:34;;;;;;;13.63;10.40;;;9.70;99.90;;;;;;5029769;28;20174;-78